Time;durP1;ratioP1;P1;durP2;ratioP2;P2;SDS_P1;SDS_P2;PMS_P1;PMS_P2;Temp;Humidity;BMP_temperature;BMP_pressure;BME280_temperature;BME280_humidity;BME280_pressure;Samples;Min_cycle;Max_cycle;Signal;HPM_P1;HPM_P2
2021/04/29 00:02:07;;;;;;;6.00;4.00;;;;;;;11.48;53.02;99537.08;128317;1101;62920;-77
2021/04/29 00:04:35;;;;;;;6.60;3.73;;;;;;;11.48;53.39;99537.08;128350;1101;62472;-77
2021/04/29 00:07:02;;;;;;;8.93;3.80;;;;;;;11.47;53.15;99532.77;128339;1101;62954;-77
2021/04/29 00:09:30;;;;;;;6.80;4.07;;;;;;;11.47;53.50;99539.93;128337;1101;62500;-77
2021/04/29 00:11:56;;;;;;;6.40;4.50;;;;;;;11.44;53.25;99535.86;128375;1101;62001;-77
2021/04/29 00:14:24;;;;;;;9.03;4.80;;;;;;;11.42;53.15;99533.41;128373;1101;62240;-78
2021/04/29 00:16:50;;;;;;;7.30;3.83;;;;;;;11.42;52.81;99529.94;128295;1101;62362;-78
2021/04/29 00:19:17;;;;;;;7.63;4.37;;;;;;;11.41;53.55;99526.48;128323;1101;62300;-78
2021/04/29 00:21:44;;;;;;;8.10;4.03;;;;;;;11.41;53.22;99531.79;128389;1101;63981;-78
2021/04/29 00:24:10;;;;;;;7.40;3.80;;;;;;;11.40;53.26;99535.45;128373;1101;62168;-78
2021/04/29 00:26:37;;;;;;;7.13;4.13;;;;;;;11.39;52.73;99528.52;128356;1101;63106;-78
2021/04/29 00:29:03;;;;;;;8.73;4.80;;;;;;;11.38;52.51;99524.22;128323;1101;64054;-78
2021/04/29 00:31:30;;;;;;;14.63;6.17;;;;;;;11.39;52.23;99528.52;128349;1101;62221;-78
2021/04/29 00:34:00;;;;;;;8.83;4.33;;;;;;;11.41;52.19;99531.79;128485;1101;62422;-77
2021/04/29 00:36:28;;;;;;;12.70;4.20;;;;;;;11.41;52.74;99529.13;128358;1101;62512;-75
2021/04/29 00:38:56;;;;;;;8.27;3.87;;;;;;;11.41;52.87;99529.13;128276;1101;63295;-77
2021/04/29 00:41:26;;;;;;;6.67;4.07;;;;;;;11.40;52.15;99535.45;128214;1101;62708;-78
2021/04/29 00:43:54;;;;;;;7.60;4.37;;;;;;;11.41;52.40;99529.13;128332;1101;62753;-77
2021/04/29 00:46:21;;;;;;;6.97;4.63;;;;;;;11.41;52.38;99529.13;128360;1101;63397;-77
2021/04/29 00:48:48;;;;;;;10.77;4.93;;;;;;;11.47;51.92;99524.00;128302;1101;61894;-77
2021/04/29 00:51:17;;;;;;;9.43;4.20;;;;;;;11.51;52.52;99530.52;128360;1101;62111;-78
2021/04/29 00:53:46;;;;;;;8.67;4.90;;;;;;;11.55;52.91;99527.23;128404;1101;62184;-77
2021/04/29 00:56:14;;;;;;;9.00;4.00;;;;;;;11.59;53.71;99527.64;128399;1101;62074;-77
2021/04/29 00:58:40;;;;;;;8.47;4.37;;;;;;;11.60;54.41;99534.56;128350;1101;63047;-78
2021/04/29 01:01:07;;;;;;;9.47;4.80;;;;;;;11.59;54.77;99528.45;128350;1101;62409;-78
2021/04/29 01:04:03;;;;;;;7.70;4.97;;;;;;;11.58;55.80;99521.52;128328;1101;62525;-78
2021/04/29 01:07:10;;;;;;;6.75;4.40;;;;;;;11.54;57.21;99528.27;128307;1101;62149;-78
2021/04/29 01:09:47;;;;;;;7.30;4.00;;;;;;;11.51;59.36;99525.21;128309;1101;62855;-79
2021/04/29 01:12:34;;;;;;;5.63;3.47;;;;;;;11.46;60.60;99527.69;128326;1101;62523;-78
2021/04/29 01:15:01;;;;;;;7.70;3.67;;;;;;;11.38;62.97;99526.88;128385;1101;62309;-79
2021/04/29 01:17:31;;;;;;;8.53;5.20;;;;;;;11.32;63.92;99521.59;128069;1101;62606;-78
2021/04/29 01:20:12;;;;;;;8.67;5.40;;;;;;;11.23;65.77;99523.66;128384;1101;62231;-77
2021/04/29 01:22:43;;;;;;;9.43;5.20;;;;;;;11.13;66.13;99523.27;128317;1101;63271;-78
2021/04/29 01:25:15;;;;;;;10.10;6.67;;;;;;;11.04;66.80;99517.36;128343;1101;62134;-77
2021/04/29 01:27:43;;;;;;;6.83;4.20;;;;;;;10.99;68.61;99528.60;128324;1102;62718;-76
2021/04/29 01:30:13;;;;;;;7.90;4.37;;;;;;;10.92;69.99;99519.00;128328;1101;63132;-76
2021/04/29 01:32:41;;;;;;;6.63;4.33;;;;;;;10.85;69.95;99521.67;128380;1101;62580;-76
2021/04/29 01:35:09;;;;;;;7.63;4.97;;;;;;;10.77;70.49;99516.57;128121;1102;62504;-77
2021/04/29 01:37:37;;;;;;;6.40;4.23;;;;;;;10.70;73.10;99513.92;128351;1101;62485;-77
2021/04/29 01:40:06;;;;;;;9.40;6.07;;;;;;;10.65;73.23;99515.55;128311;1101;62127;-76
2021/04/29 01:42:36;;;;;;;8.40;5.60;;;;;;;10.61;73.95;99513.31;128317;1101;62122;-77
2021/04/29 01:45:04;;;;;;;7.23;5.03;;;;;;;10.55;74.95;99503.52;128352;1101;62427;-77
2021/04/29 01:47:33;;;;;;;8.73;5.70;;;;;;;10.49;73.57;99509.64;128372;1101;62394;-75
2021/04/29 01:50:06;;;;;;;7.07;4.93;;;;;;;10.44;75.03;99504.14;128396;1101;62422;-77
2021/04/29 01:52:34;;;;;;;8.93;5.87;;;;;;;10.38;76.08;99511.06;128344;1101;62307;-76
2021/04/29 01:55:03;;;;;;;8.37;5.03;;;;;;;10.35;76.15;99513.32;128407;1101;62789;-76
2021/04/29 01:57:30;;;;;;;11.03;5.57;;;;;;;10.32;76.56;99511.06;128333;1101;63060;-76
2021/04/29 01:59:56;;;;;;;7.33;5.03;;;;;;;10.28;78.00;99509.80;128353;1101;62471;-76
2021/04/29 02:02:24;;;;;;;6.43;3.77;;;;;;;10.24;78.56;99509.38;128302;1101;62279;-77
2021/04/29 02:04:51;;;;;;;6.43;3.83;;;;;;;10.20;78.76;99503.69;128322;1101;62345;-77
2021/04/29 02:07:18;;;;;;;11.07;7.03;;;;;;;10.15;79.17;99503.45;128362;1101;64036;-77
2021/04/29 02:09:45;;;;;;;6.63;5.13;;;;;;;10.10;79.70;99497.95;128351;1100;62559;-76
2021/04/29 02:12:12;;;;;;;9.27;5.83;;;;;;;10.07;80.27;99495.69;128349;1101;63075;-76
2021/04/29 02:14:47;;;;;;;7.75;5.00;;;;;;;10.04;80.87;99498.75;128357;1101;62535;-78
2021/04/29 02:17:24;;;;;;;7.95;4.90;;;;;;;10.01;80.77;99496.52;128380;1101;62285;-79
2021/04/29 02:19:52;;;;;;;7.53;4.73;;;;;;;9.98;81.06;99499.55;128379;1101;62866;-77
2021/04/29 02:22:21;;;;;;;7.30;5.03;;;;;;;9.93;81.36;99500.16;128331;1101;62259;-77
2021/04/29 02:24:48;;;;;;;13.03;8.43;;;;;;;9.92;80.92;99510.94;128350;1101;62369;-78
2021/04/29 02:27:15;;;;;;;13.57;9.77;;;;;;;9.92;80.17;99495.05;128086;1102;62763;-77
2021/04/29 02:29:43;;;;;;;13.60;8.23;;;;;;;9.93;80.13;99502.80;128350;1101;62105;-78
2021/04/29 02:32:10;;;;;;;16.67;9.50;;;;;;;9.95;80.32;99494.67;128367;1101;62126;-77
2021/04/29 02:34:38;;;;;;;9.77;6.80;;;;;;;9.96;80.75;99496.28;128392;1101;62826;-77
2021/04/29 02:37:05;;;;;;;7.37;5.20;;;;;;;9.94;80.06;99500.97;128366;1101;62168;-78
2021/04/29 02:39:32;;;;;;;12.10;6.50;;;;;;;9.92;80.34;99495.86;128372;1101;62479;-79
2021/04/29 02:41:59;;;;;;;10.83;7.23;;;;;;;9.90;80.86;99497.08;128377;1101;62507;-78
2021/04/29 02:44:27;;;;;;;8.63;5.37;;;;;;;9.89;80.59;99498.11;128389;1101;62179;-77
2021/04/29 02:46:53;;;;;;;8.00;6.03;;;;;;;9.88;80.50;99501.76;128322;1101;63379;-77
2021/04/29 02:49:20;;;;;;;6.60;3.97;;;;;;;9.87;81.61;99500.14;128342;1101;62689;-78
2021/04/29 02:51:48;;;;;;;15.47;7.83;;;;;;;9.87;81.25;99498.30;128306;1101;62665;-78
2021/04/29 02:54:16;;;;;;;15.30;9.80;;;;;;;9.86;81.06;99495.84;128363;1102;62434;-78
2021/04/29 02:56:43;;;;;;;11.63;8.57;;;;;;;9.87;81.24;99497.49;128407;1101;61897;-78
2021/04/29 02:59:11;;;;;;;12.30;9.27;;;;;;;9.88;81.17;99499.95;128322;1101;64028;-78
2021/04/29 03:01:39;;;;;;;16.63;9.90;;;;;;;9.93;80.91;99494.05;128420;1101;62170;-79
2021/04/29 03:04:06;;;;;;;16.13;10.47;;;;;;;9.96;81.32;99496.28;128391;1101;62138;-78
2021/04/29 03:06:32;;;;;;;13.63;9.60;;;;;;;9.98;81.25;99494.25;128360;1101;62362;-78
2021/04/29 03:08:59;;;;;;;13.27;9.90;;;;;;;9.95;81.06;99492.02;128345;1101;62099;-78
2021/04/29 03:11:25;;;;;;;14.87;10.07;;;;;;;9.93;80.92;99486.10;128380;1101;62528;-78
2021/04/29 03:13:52;;;;;;;12.73;9.43;;;;;;;9.91;81.17;99480.19;128394;1101;62579;-79
2021/04/29 03:16:18;;;;;;;12.93;9.03;;;;;;;9.89;81.06;99485.67;128376;1101;62485;-78
2021/04/29 03:18:45;;;;;;;15.13;9.80;;;;;;;9.87;81.38;99477.11;128392;1101;62292;-78
2021/04/29 03:21:12;;;;;;;11.53;8.50;;;;;;;9.85;80.45;99478.34;128413;1094;62251;-78
2021/04/29 03:23:38;;;;;;;19.23;11.60;;;;;;;9.83;80.74;99478.52;128347;1101;62502;-79
2021/04/29 03:26:05;;;;;;;15.73;11.03;;;;;;;9.83;81.15;99480.36;128131;1102;62628;-78
2021/04/29 03:28:32;;;;;;;17.77;11.60;;;;;;;9.82;81.32;99479.56;128364;1101;62353;-78
2021/04/29 03:30:58;;;;;;;17.23;11.47;;;;;;;9.83;81.27;99480.36;128380;1101;62333;-78
2021/04/29 03:33:25;;;;;;;16.85;11.45;;;;;;;9.80;81.93;99474.45;128383;1101;62902;-77
2021/04/29 03:35:52;;;;;;;17.97;10.87;;;;;;;9.78;81.75;99473.83;128340;1101;62051;-78
2021/04/29 03:38:19;;;;;;;18.07;11.83;;;;;;;9.82;82.10;99468.96;128395;1101;62730;-77
2021/04/29 03:40:46;;;;;;;17.93;10.93;;;;;;;9.82;81.64;99473.42;128388;1101;62989;-78
2021/04/29 03:43:12;;;;;;;10.27;6.83;;;;;;;9.78;82.14;99467.73;128361;1101;62027;-78
2021/04/29 03:45:39;;;;;;;11.20;7.87;;;;;;;9.73;82.40;99475.44;128385;1101;62228;-79
2021/04/29 03:48:09;;;;;;;11.47;7.77;;;;;;;9.68;82.04;99478.69;128373;1101;63428;-78
2021/04/29 03:50:36;;;;;;;12.77;9.03;;;;;;;9.64;82.58;99474.80;128392;1101;62482;-78
2021/04/29 03:53:02;;;;;;;10.50;7.67;;;;;;;9.59;82.57;99475.40;128394;1101;62281;-78
2021/04/29 03:55:29;;;;;;;16.70;10.37;;;;;;;9.57;82.46;99476.63;128393;1101;62889;-78
2021/04/29 03:57:56;;;;;;;12.63;8.80;;;;;;;9.56;82.66;99474.97;128389;1101;62265;-78
2021/04/29 04:00:23;;;;;;;20.97;14.03;;;;;;;9.56;82.34;99472.33;128341;1101;63031;-78
2021/04/29 04:02:55;;;;;;;20.70;12.10;;;;;;;9.59;82.84;99469.30;128344;1101;62240;-77
2021/04/29 04:05:21;;;;;;;20.27;12.87;;;;;;;9.59;83.20;99474.59;128383;1101;62085;-78
2021/04/29 04:07:48;;;;;;;20.10;12.77;;;;;;;9.62;83.00;99473.38;128350;1101;62365;-77
2021/04/29 04:10:15;;;;;;;21.83;14.47;;;;;;;9.65;82.60;99463.20;128351;1101;62881;-78
2021/04/29 04:12:41;;;;;;;19.33;12.93;;;;;;;9.67;82.64;99466.48;128357;1101;63037;-78
2021/04/29 04:15:08;;;;;;;19.43;13.80;;;;;;;9.70;83.18;99463.41;128363;1101;62180;-78
2021/04/29 04:17:35;;;;;;;20.03;13.90;;;;;;;9.74;83.60;99469.95;128433;1101;63011;-79
2021/04/29 04:20:19;;;;;;;19.97;12.43;;;;;;;9.77;83.56;99472.19;128414;1101;62285;-78
2021/04/29 04:22:46;;;;;;;17.85;13.25;;;;;;;9.80;82.79;99469.16;128413;1101;62443;-78
2021/04/29 04:25:13;;;;;;;20.37;13.77;;;;;;;9.83;83.28;99473.23;128300;1101;62124;-79
2021/04/29 04:27:40;;;;;;;22.37;13.87;;;;;;;9.84;83.36;99476.69;128347;1101;62447;-79
2021/04/29 04:30:07;;;;;;;20.40;14.63;;;;;;;9.87;83.58;99482.41;128286;1101;62185;-78
2021/04/29 04:32:33;;;;;;;21.77;14.17;;;;;;;9.88;83.08;99475.27;128408;1101;62093;-78
2021/04/29 04:35:01;;;;;;;21.57;13.73;;;;;;;9.86;83.01;99469.36;128368;1101;62284;-79
2021/04/29 04:37:28;;;;;;;19.43;12.90;;;;;;;9.82;82.63;99468.96;128362;1101;62869;-78
2021/04/29 04:39:54;;;;;;;24.13;14.00;;;;;;;9.79;82.59;99467.50;128069;1101;62665;-78
2021/04/29 04:42:21;;;;;;;19.77;13.40;;;;;;;9.77;83.13;99472.19;128396;1101;62241;-78
2021/04/29 04:44:47;;;;;;;20.43;13.17;;;;;;;9.78;83.08;99465.89;128400;1101;63032;-79
2021/04/29 04:47:14;;;;;;;20.53;14.53;;;;;;;9.78;83.34;99465.89;128313;1101;62846;-79
2021/04/29 04:49:41;;;;;;;17.80;12.30;;;;;;;9.76;82.88;99465.27;128322;1101;62389;-79
2021/04/29 04:52:08;;;;;;;19.17;12.30;;;;;;;9.73;83.42;99465.69;128333;1101;64269;-78
2021/04/29 04:54:35;;;;;;;12.00;8.50;;;;;;;9.70;83.84;99467.91;127957;1101;62527;-79
2021/04/29 04:57:02;;;;;;;19.73;11.63;;;;;;;9.66;83.30;99472.77;128419;1101;62313;-79
2021/04/29 04:59:29;;;;;;;17.43;12.03;;;;;;;9.64;84.06;99471.34;128336;1102;62164;-78
2021/04/29 05:01:56;;;;;;;19.63;12.73;;;;;;;9.60;83.25;99468.27;128329;1101;62101;-78
2021/04/29 05:04:27;;;;;;;16.37;10.80;;;;;;;9.61;84.32;99466.45;128384;1101;62361;-78
2021/04/29 05:06:57;;;;;;;25.63;16.13;;;;;;;9.61;83.64;99467.27;128365;1101;62338;-79
2021/04/29 05:09:24;;;;;;;25.37;15.60;;;;;;;9.65;84.00;99465.86;128369;1101;62470;-78
2021/04/29 05:11:50;;;;;;;20.47;14.27;;;;;;;9.66;83.67;99466.67;128384;1101;62520;-74
2021/04/29 05:14:17;;;;;;;19.47;14.33;;;;;;;9.69;83.91;99475.04;128067;1101;62869;-75
2021/04/29 05:16:44;;;;;;;22.30;14.53;;;;;;;9.74;83.67;99477.09;128118;1101;63186;-74
2021/04/29 05:19:11;;;;;;;21.53;14.23;;;;;;;9.76;84.01;99480.35;128165;1101;62622;-74
2021/04/29 05:21:38;;;;;;;21.93;14.47;;;;;;;9.76;83.70;99480.35;128358;1101;62102;-74
2021/04/29 05:24:06;;;;;;;21.77;12.20;;;;;;;9.78;83.50;99488.91;128261;1101;63709;-74
2021/04/29 05:26:33;;;;;;;25.97;15.80;;;;;;;9.81;84.01;99491.16;128110;1101;62711;-75
2021/04/29 05:29:02;;;;;;;21.80;14.33;;;;;;;9.83;83.90;99491.77;128383;1101;63058;-77
2021/04/29 05:31:29;;;;;;;18.83;12.33;;;;;;;9.84;83.86;99493.42;128356;1101;62372;-77
2021/04/29 05:33:56;;;;;;;16.70;12.00;;;;;;;9.82;83.95;99489.31;128396;1101;62508;-77
2021/04/29 05:36:23;;;;;;;28.50;15.67;;;;;;;9.85;83.83;99495.03;128316;1101;62457;-76
2021/04/29 05:38:49;;;;;;;23.47;16.17;;;;;;;9.84;84.52;99488.13;128449;1101;62798;-76
2021/04/29 05:41:16;;;;;;;22.60;14.27;;;;;;;9.82;84.32;99489.31;128384;1101;63361;-78
2021/04/29 05:43:43;;;;;;;21.30;13.97;;;;;;;9.78;84.51;99489.72;128345;1101;62227;-77
2021/04/29 05:46:10;;;;;;;12.13;7.20;;;;;;;9.74;85.65;99503.56;128286;1101;62188;-78
2021/04/29 05:48:36;;;;;;;13.73;9.43;;;;;;;9.69;84.60;99496.22;128357;1101;62541;-77
2021/04/29 05:51:03;;;;;;;9.77;6.27;;;;;;;9.61;85.34;99504.34;128368;1101;62441;-77
2021/04/29 05:53:29;;;;;;;10.90;7.07;;;;;;;9.52;85.59;99505.50;128402;1101;62435;-77
2021/04/29 05:55:56;;;;;;;10.73;6.47;;;;;;;9.45;84.98;99499.38;128399;1101;62141;-76
2021/04/29 05:58:23;;;;;;;9.40;6.17;;;;;;;9.38;85.20;99505.45;128126;1102;63132;-77
2021/04/29 06:00:49;;;;;;;10.60;7.03;;;;;;;9.32;85.16;99502.77;128370;1101;62272;-77
2021/04/29 06:03:16;;;;;;;11.60;7.23;;;;;;;9.27;84.60;99502.56;128021;1101;62309;-77
2021/04/29 06:05:43;;;;;;;10.17;6.80;;;;;;;9.23;84.63;99496.02;128387;1101;62269;-77
2021/04/29 06:08:09;;;;;;;8.80;6.13;;;;;;;9.18;84.61;99497.42;128114;1101;62343;-77
2021/04/29 06:10:36;;;;;;;13.73;8.57;;;;;;;9.17;85.56;99500.25;128342;1101;62201;-77
2021/04/29 06:13:03;;;;;;;14.67;9.07;;;;;;;9.17;85.70;99500.25;128417;1101;63370;-77
2021/04/29 06:15:30;;;;;;;19.37;10.17;;;;;;;9.15;84.80;99507.56;128381;1101;62063;-77
2021/04/29 06:17:57;;;;;;;12.77;8.53;;;;;;;9.14;84.96;99500.66;128257;1101;62233;-77
2021/04/29 06:20:24;;;;;;;15.27;9.63;;;;;;;9.11;84.88;99504.48;128375;1101;63232;-77
2021/04/29 06:22:52;;;;;;;15.80;10.40;;;;;;;9.11;85.22;99501.03;128283;1101;62220;-76
2021/04/29 06:25:20;;;;;;;12.15;7.35;;;;;;;9.11;84.92;99493.91;128318;1101;63015;-78
2021/04/29 06:27:55;;;;;;;10.50;7.57;;;;;;;9.10;85.38;99502.05;128075;1101;62363;-77
2021/04/29 06:30:23;;;;;;;16.80;11.25;;;;;;;9.13;85.18;99499.00;128074;1101;62268;-77
2021/04/29 06:32:50;;;;;;;10.60;6.87;;;;;;;9.14;85.19;99501.47;128432;1101;62443;-77
2021/04/29 06:35:17;;;;;;;11.50;6.63;;;;;;;9.12;84.76;99505.33;128416;1101;62383;-77
2021/04/29 06:37:43;;;;;;;12.77;8.27;;;;;;;9.13;85.02;99506.94;128435;1101;62922;-77
2021/04/29 06:40:12;;;;;;;17.80;12.30;;;;;;;9.14;84.35;99508.59;128431;1101;62187;-77
2021/04/29 06:42:39;;;;;;;16.07;10.07;;;;;;;9.14;84.16;99508.59;128418;1101;62126;-77
2021/04/29 06:45:06;;;;;;;15.17;9.17;;;;;;;9.15;84.54;99505.73;128453;1101;62156;-77
2021/04/29 06:47:33;;;;;;;12.87;7.10;;;;;;;9.14;84.96;99509.41;128479;1101;62399;-77
2021/04/29 06:50:00;;;;;;;12.60;7.23;;;;;;;9.11;84.77;99503.67;128478;1101;62082;-77
2021/04/29 06:52:27;;;;;;;13.57;8.33;;;;;;;9.08;84.14;99514.66;128383;1101;62642;-77
2021/04/29 06:54:53;;;;;;;17.15;12.00;;;;;;;9.05;84.66;99513.19;128425;1101;62101;-77
2021/04/29 06:57:20;;;;;;;12.50;8.23;;;;;;;9.03;84.52;99507.31;128411;1101;62131;-77
2021/04/29 06:59:47;;;;;;;11.50;7.80;;;;;;;9.03;84.53;99511.76;128438;1101;62272;-79
2021/04/29 07:02:13;;;;;;;14.60;8.90;;;;;;;9.04;84.88;99514.22;128377;1101;62801;-77
2021/04/29 07:05:00;;;;;;;17.43;11.00;;;;;;;9.02;84.50;99515.43;128360;1101;62318;-76
2021/04/29 07:07:27;;;;;;;18.87;12.77;;;;;;;9.00;84.77;99518.27;128328;1101;62232;-77
2021/04/29 07:09:54;;;;;;;17.93;13.27;;;;;;;9.01;84.26;99511.13;128425;1101;62479;-77
2021/04/29 07:12:20;;;;;;;17.73;12.47;;;;;;;9.01;85.25;99508.48;128292;1101;62330;-79
2021/04/29 07:14:48;;;;;;;18.73;12.67;;;;;;;9.02;84.83;99515.43;128436;1101;63990;-79
2021/04/29 07:17:14;;;;;;;14.17;10.33;;;;;;;9.01;85.53;99516.42;128368;1101;62230;-76
2021/04/29 07:19:41;;;;;;;17.40;11.37;;;;;;;8.98;84.46;99499.93;128420;1101;62224;-78
2021/04/29 07:22:08;;;;;;;12.57;8.80;;;;;;;8.98;85.07;99509.70;128392;1101;63619;-79
2021/04/29 07:24:35;;;;;;;16.57;10.73;;;;;;;9.00;84.65;99517.45;128382;1101;62078;-76
2021/04/29 07:27:04;;;;;;;13.93;9.63;;;;;;;9.01;85.20;99514.63;128406;1101;62009;-75
2021/04/29 07:29:32;;;;;;;15.00;11.70;;;;;;;9.02;85.08;99499.56;128325;1095;62073;-75
2021/04/29 07:32:03;;;;;;;15.00;9.40;;;;;;;9.07;85.79;99507.72;128381;1101;62222;-75
2021/04/29 07:34:30;;;;;;;19.93;13.93;;;;;;;9.11;84.99;99507.13;128716;1101;62007;-75
2021/04/29 07:37:00;;;;;;;20.57;14.47;;;;;;;9.20;85.37;99507.78;128501;1101;62530;-74
2021/04/29 07:39:28;;;;;;;17.93;11.33;;;;;;;9.27;84.52;99508.66;128426;1101;62031;-74
2021/04/29 07:41:55;;;;;;;15.77;11.07;;;;;;;9.31;84.98;99509.09;128391;1101;62524;-75
2021/04/29 07:44:21;;;;;;;10.90;7.30;;;;;;;9.33;84.23;99517.66;128428;1101;62607;-75
2021/04/29 07:46:48;;;;;;;12.20;8.70;;;;;;;9.31;84.87;99515.20;127923;1102;62520;-75
2021/04/29 07:49:18;;;;;;;15.13;8.57;;;;;;;9.30;84.81;99518.84;128354;1101;62496;-75
2021/04/29 07:51:45;;;;;;;15.07;11.00;;;;;;;9.29;84.87;99522.52;128425;1101;62285;-75
2021/04/29 07:54:15;;;;;;;15.67;9.67;;;;;;;9.32;84.95;99522.11;128150;1102;62121;-75
2021/04/29 07:56:43;;;;;;;14.20;8.40;;;;;;;9.30;84.84;99515.38;128415;1101;62165;-75
2021/04/29 07:59:10;;;;;;;11.90;7.20;;;;;;;9.28;85.15;99523.51;128418;1101;62129;-74
2021/04/29 08:01:44;;;;;;;12.77;8.33;;;;;;;9.22;85.58;99520.83;128465;1101;62033;-76
2021/04/29 08:04:10;;;;;;;15.43;9.50;;;;;;;9.18;85.16;99536.30;128408;1101;62529;-75
2021/04/29 08:06:37;;;;;;;17.43;11.93;;;;;;;9.17;84.89;99540.75;128154;1102;62153;-74
2021/04/29 08:09:04;;;;;;;18.27;12.60;;;;;;;9.21;85.55;99543.02;128385;1101;62265;-75
2021/04/29 08:11:30;;;;;;;18.23;11.90;;;;;;;9.22;84.63;99534.88;128290;1101;63485;-74
2021/04/29 08:13:57;;;;;;;17.30;10.90;;;;;;;9.24;85.41;99535.49;128347;1101;62911;-75
2021/04/29 08:16:24;;;;;;;15.03;10.63;;;;;;;9.23;84.76;99533.88;128436;1101;62001;-75
2021/04/29 08:18:50;;;;;;;14.57;10.57;;;;;;;9.23;85.82;99536.52;128415;1101;63219;-77
2021/04/29 08:21:35;;;;;;;;;;;;;;;9.22;85.73;99534.88;128448;1101;62299;-75
2021/04/29 08:24:02;;;;;;;9.37;7.13;;;;;;;9.21;84.89;99541.19;128435;1101;62487;-75
2021/04/29 08:26:30;;;;;;;12.47;8.30;;;;;;;9.24;85.63;99535.49;128197;1103;62233;-75
2021/04/29 08:28:57;;;;;;;11.67;7.20;;;;;;;9.28;85.56;99535.93;128435;1101;62902;-75
2021/04/29 08:31:23;;;;;;;20.53;13.83;;;;;;;9.31;85.40;99531.08;128425;1101;62568;-76
2021/04/29 08:33:50;;;;;;;17.13;12.93;;;;;;;9.38;85.17;99536.40;128183;1102;62298;-75
2021/04/29 08:36:16;;;;;;;19.50;13.03;;;;;;;9.46;85.63;99532.78;128455;1101;62098;-74
2021/04/29 08:38:43;;;;;;;17.10;12.47;;;;;;;9.53;85.02;99536.27;128471;1101;62002;-75
2021/04/29 08:41:10;;;;;;;17.77;11.37;;;;;;;9.62;84.86;99536.92;128450;1101;61990;-75
2021/04/29 08:43:37;;;;;;;17.97;12.33;;;;;;;9.75;84.95;99540.45;128284;1102;62312;-74
2021/04/29 08:46:05;;;;;;;13.23;8.10;;;;;;;9.84;84.50;99537.60;128460;1101;61897;-75
2021/04/29 08:48:32;;;;;;;10.13;7.47;;;;;;;9.89;84.59;99527.25;128450;1101;62275;-76
2021/04/29 08:51:01;;;;;;;9.80;7.53;;;;;;;9.93;83.78;99525.84;128469;1101;62247;-75
2021/04/29 08:53:28;;;;;;;15.10;10.33;;;;;;;9.99;84.06;99523.20;128457;1101;62294;-74
2021/04/29 08:55:54;;;;;;;12.27;8.70;;;;;;;10.07;84.64;99527.48;128462;1101;62102;-75
2021/04/29 08:58:21;;;;;;;12.40;8.83;;;;;;;10.09;82.82;99528.10;128435;1101;62308;-75
2021/04/29 09:01:01;;;;;;;13.53;10.57;;;;;;;10.16;83.52;99517.55;128460;1101;64173;-75
2021/04/29 09:03:29;;;;;;;14.10;11.93;;;;;;;10.32;82.95;99516.36;128498;1101;63440;-74
2021/04/29 09:05:58;;;;;;;12.63;10.03;;;;;;;10.49;83.08;99517.59;128482;1101;62089;-74
2021/04/29 09:08:29;;;;;;;11.73;8.20;;;;;;;10.68;82.91;99521.27;128475;1101;62436;-74
2021/04/29 09:11:18;;;;;;;10.80;8.50;;;;;;;10.90;82.95;99513.93;128151;1101;62132;-75
2021/04/29 09:14:05;;;;;;;9.10;6.70;;;;;;;11.14;81.18;99515.10;128220;1101;62371;-75
2021/04/29 09:16:43;;;;;;;13.60;11.10;;;;;;;11.38;80.82;99513.60;128458;1101;62066;-76
2021/04/29 09:19:18;;;;;;;11.67;8.43;;;;;;;11.56;80.00;99523.56;128485;1101;63245;-75
2021/04/29 09:21:45;;;;;;;10.77;7.67;;;;;;;11.69;79.09;99528.02;128411;1101;62342;-75
2021/04/29 09:24:12;;;;;;;9.87;6.80;;;;;;;11.77;78.47;99541.06;128385;1101;62262;-75
2021/04/29 09:26:40;;;;;;;11.77;7.63;;;;;;;11.67;77.26;99543.34;128248;1101;62022;-75
2021/04/29 09:29:14;;;;;;;10.30;7.30;;;;;;;11.54;77.77;99540.71;128419;1101;62117;-74
2021/04/29 09:31:47;;;;;;;9.93;7.58;;;;;;;11.40;78.21;99543.42;128380;1101;62291;-74
2021/04/29 09:34:18;;;;;;;9.43;6.77;;;;;;;11.28;78.72;99553.04;128422;1101;62272;-74
2021/04/29 09:36:45;;;;;;;11.73;8.73;;;;;;;11.14;78.16;99546.14;128467;1101;62578;-75
2021/04/29 09:39:13;;;;;;;11.67;8.03;;;;;;;11.01;78.94;99537.17;128456;1101;62072;-75
2021/04/29 09:41:46;;;;;;;12.70;9.30;;;;;;;10.95;79.13;99538.00;128425;1101;61804;-74
2021/04/29 09:44:23;;;;;;;13.20;10.27;;;;;;;10.96;79.31;99538.80;128472;1101;62908;-75
2021/04/29 09:47:02;;;;;;;14.57;11.73;;;;;;;11.00;79.50;99545.33;128435;1101;62574;-75
2021/04/29 09:49:35;;;;;;;10.47;7.83;;;;;;;11.07;79.60;99535.55;128394;1101;62339;-74
2021/04/29 09:52:04;;;;;;;11.93;8.43;;;;;;;11.22;79.77;99536.13;128437;1101;62420;-74
2021/04/29 09:54:40;;;;;;;10.47;7.53;;;;;;;11.36;79.89;99534.23;128477;1101;62032;-74
2021/04/29 09:57:13;;;;;;;12.00;8.93;;;;;;;11.52;79.15;99532.98;128411;1101;63338;-74
2021/04/29 09:59:45;;;;;;;12.43;9.57;;;;;;;11.70;78.63;99534.94;128462;1101;62529;-75
2021/04/29 10:02:14;;;;;;;11.60;6.77;;;;;;;11.95;77.87;99539.58;128415;1101;62287;-75
2021/04/29 10:04:43;;;;;;;16.03;11.30;;;;;;;12.21;77.04;99531.44;128345;1101;62061;-73
2021/04/29 10:07:10;;;;;;;13.73;9.67;;;;;;;12.53;76.75;99528.77;128440;1101;62054;-74
2021/04/29 10:09:38;;;;;;;15.43;10.23;;;;;;;12.75;75.30;99541.69;128278;1101;64170;-74
2021/04/29 10:12:16;;;;;;;18.67;13.43;;;;;;;12.91;75.22;99538.48;128375;1101;62371;-74
2021/04/29 10:14:48;;;;;;;13.70;9.63;;;;;;;13.01;74.31;99530.02;128468;1101;62197;-74
2021/04/29 10:17:17;;;;;;;11.97;8.57;;;;;;;13.00;74.33;99537.16;128439;1101;62127;-74
2021/04/29 10:19:46;;;;;;;13.77;10.23;;;;;;;12.92;73.40;99537.47;128428;1101;62716;-74
2021/04/29 10:22:15;;;;;;;13.83;10.00;;;;;;;12.80;73.61;99531.23;128449;1101;62906;-72
2021/04/29 10:24:47;;;;;;;15.20;10.40;;;;;;;12.68;73.81;99509.02;128466;1101;62280;-72
2021/04/29 10:27:22;;;;;;;16.40;12.23;;;;;;;12.58;74.44;99491.70;128443;1101;62226;-72
2021/04/29 10:30:01;;;;;;;14.90;11.13;;;;;;;12.57;74.56;99508.68;128422;1101;62433;-73
2021/04/29 10:32:33;;;;;;;19.23;14.30;;;;;;;12.60;75.50;99502.11;128426;1101;62186;-74
2021/04/29 10:35:12;;;;;;;12.50;8.37;;;;;;;12.62;76.13;99506.20;128430;1101;62813;-74
2021/04/29 10:37:39;;;;;;;13.03;10.20;;;;;;;12.76;75.46;99506.08;128230;1101;62411;-74
2021/04/29 10:40:07;;;;;;;12.47;8.93;;;;;;;13.01;76.00;99506.05;128191;1102;62093;-72
2021/04/29 10:42:44;;;;;;;11.27;8.90;;;;;;;13.35;75.79;99499.38;128370;1101;63924;-73
2021/04/29 10:45:13;;;;;;;13.47;9.50;;;;;;;13.69;75.25;99498.98;128197;1101;62525;-75
2021/04/29 10:47:41;;;;;;;15.80;11.63;;;;;;;14.14;75.11;99491.38;128472;1101;64256;-75
2021/04/29 10:50:18;;;;;;;14.80;10.73;;;;;;;14.68;72.47;99486.87;128373;1101;62568;-76
2021/04/29 10:52:55;;;;;;;16.47;11.43;;;;;;;15.21;71.53;99484.27;128253;1101;62029;-74
2021/04/29 10:55:31;;;;;;;15.43;11.03;;;;;;;15.46;68.96;99482.11;128632;1101;62031;-74
2021/04/29 10:57:59;;;;;;;14.47;11.70;;;;;;;15.73;68.85;99481.61;128465;1101;62054;-74
2021/04/29 11:00:29;;;;;;;13.80;11.77;;;;;;;16.07;67.13;99465.64;128429;1101;63733;-76
2021/04/29 11:03:04;;;;;;;14.10;10.40;;;;;;;16.43;66.66;99480.42;128450;1101;62083;-78
2021/04/29 11:05:33;;;;;;;16.80;13.60;;;;;;;16.74;63.73;99480.08;128462;1101;62463;-77
2021/04/29 11:08:04;;;;;;;12.73;10.13;;;;;;;16.89;62.14;99480.33;128636;1101;62024;-77
2021/04/29 11:10:35;;;;;;;11.33;8.73;;;;;;;17.01;59.70;99462.28;128503;1101;62320;-78
2021/04/29 11:13:03;;;;;;;12.43;9.90;;;;;;;17.11;58.37;99470.46;128471;1101;62769;-77
2021/04/29 11:15:36;;;;;;;12.23;9.20;;;;;;;17.23;59.37;99459.61;128443;1101;61779;-77
2021/04/29 11:18:06;;;;;;;12.70;11.03;;;;;;;17.28;60.04;99458.89;128505;1101;62380;-77
2021/04/29 11:20:59;;;;;;;12.93;10.33;;;;;;;17.52;59.89;99443.34;128475;1101;62279;-78
2021/04/29 11:23:41;;;;;;;14.60;12.33;;;;;;;17.89;56.25;99442.67;128441;1101;62310;-78
2021/04/29 11:26:11;;;;;;;13.37;11.90;;;;;;;18.00;56.10;99430.98;128209;1101;63023;-78
2021/04/29 11:28:38;;;;;;;16.07;12.53;;;;;;;18.13;54.95;99432.44;128486;1101;62205;-77
2021/04/29 11:31:05;;;;;;;12.63;9.43;;;;;;;18.17;57.30;99430.87;128458;1101;62141;-77